Windlesham, United Kingdom
Current Conditions -  °F | °C
As of 7:50 PM on Sunday 19 Oct 2014 (Local Time) from EGLF Reporting Station
Few Clouds Few Clouds  
Wind Chill: 14°   Ceiling: Unl
Heat Index: 14°   Visibility: 6mi
Dew Point: 12°   Wind: 13mph
Humidity: 88%   Direction: 220°SW
Pressure: 29.97"   Gusts: NA
Location:  51.37°N, 0.65°W
Report Text: EGLF 191850Z 22011KT 9999 FEW020 14/12 Q1015
Loading
Personal Weather Stations






























Interactive Weather Map
Tropical Storm Tracking
New forecast layout! Learn more

10-Day Weather Forecast

Advertisements
Track Severe Weather on mobile